Kyokuhoumaru No.12 — JL5963 — position and weather

sailwx.info

Track history (hours):
 
Tides and Currents Weather Stations Pressure Air Temp Water Temp Dewpoint Dewpoint Depression Visibility Wind Speed Wind Dir Waves Ship Positions

Kyokuhoumaru No.12

Last reported at 2015-Jul-03 05:33 UTC. Time now 2015-Jul-06 00:57 UTC.
Position N 35°09' E 139°44'.

Length 57 m.

Type: Tanker. MMSI: 431500879.

Date/timePositionNaut miles runAvg speedWind from/ knotsBaromVisibWave heightAir tempDewpointWater temp
2015-Jul-03 05:33N 35°09' E 139°44'11 7.7
2015-Jul-03 04:10N 35°20' E 139°42'6 9.5
2015-Jul-03 03:33N 35°25' E 139°45'1110.5
2015-Jul-03 02:33N 35°33' E 139°54'9 8.7
2015-Jul-03 01:33N 35°41' E 139°57'0 0.2
2015-Jul-03 00:32N 35°41' E 139°57'0 0.0
2015-Jul-02 23:29N 35°41' E 139°57'1 1.2
2015-Jul-02 22:33N 35°40' E 139°57'5 4.5
2015-Jul-02 21:28N 35°36' E 139°54'0 0.0
2015-Jul-02 20:31N 35°36' E 139°54'0 0.0
2015-Jul-02 19:31N 35°36' E 139°54'0 0.0
2015-Jul-02 18:31N 35°36' E 139°54'0 0.0
2015-Jul-02 17:28N 35°36' E 139°54'0 0.0
2015-Jul-02 16:31N 35°36' E 139°54'0 0.0
2015-Jul-02 15:31N 35°36' E 139°54'0 0.0
2015-Jul-02 14:22N 35°36' E 139°54'0 0.0
2015-Jul-02 13:31N 35°36' E 139°54'0 0.0
2015-Jul-02 12:25N 35°36' E 139°54'0 0.0
2015-Jul-02 11:25N 35°36' E 139°54'0 0.0
2015-Jul-02 10:31N 35°36' E 139°54'6 6.3
2015-Jul-02 09:32N 35°30' E 139°52'10 9.8
2015-Jul-02 08:30N 35°22' E 139°45'9 9.6
2015-Jul-02 07:33N 35°13' E 139°47'  
Track history (hours):
 
Tides and Currents Weather Stations Pressure Air Temp Water Temp Dewpoint Dewpoint Depression Visibility Wind Speed Wind Dir Waves Ship Positions

Kyokuhoumaru No.12

Last reported at 2015-Jul-03 05:33 UTC. Time now 2015-Jul-06 00:57 UTC.
Position N 35°09' E 139°44'.

Length 57 m.

Type: Tanker. MMSI: 431500879.

Date/timePositionNaut miles runAvg speedWind from/ knotsBaromVisibWave heightAir tempDewpointWater temp
2015-Jul-03 05:33N 35°09' E 139°44'11 7.7
2015-Jul-03 04:10N 35°20' E 139°42'6 9.5
2015-Jul-03 03:33N 35°25' E 139°45'1110.5
2015-Jul-03 02:33N 35°33' E 139°54'9 8.7
2015-Jul-03 01:33N 35°41' E 139°57'0 0.2
2015-Jul-03 00:32N 35°41' E 139°57'0 0.0
2015-Jul-02 23:29N 35°41' E 139°57'1 1.2
2015-Jul-02 22:33N 35°40' E 139°57'5 4.5
2015-Jul-02 21:28N 35°36' E 139°54'0 0.0
2015-Jul-02 20:31N 35°36' E 139°54'0 0.0
2015-Jul-02 19:31N 35°36' E 139°54'0 0.0
2015-Jul-02 18:31N 35°36' E 139°54'0 0.0
2015-Jul-02 17:28N 35°36' E 139°54'0 0.0
2015-Jul-02 16:31N 35°36' E 139°54'0 0.0
2015-Jul-02 15:31N 35°36' E 139°54'0 0.0
2015-Jul-02 14:22N 35°36' E 139°54'0 0.0
2015-Jul-02 13:31N 35°36' E 139°54'0 0.0
2015-Jul-02 12:25N 35°36' E 139°54'0 0.0
2015-Jul-02 11:25N 35°36' E 139°54'0 0.0
2015-Jul-02 10:31N 35°36' E 139°54'6 6.3
2015-Jul-02 09:32N 35°30' E 139°52'10 9.8
2015-Jul-02 08:30N 35°22' E 139°45'9 9.6
2015-Jul-02 07:33N 35°13' E 139°47'  

Dump ship's entire track history